Time;durP1;ratioP1;P1;durP2;ratioP2;P2;SDS_P1;SDS_P2;PMS_P1;PMS_P2;Temp;Humidity;BMP_temperature;BMP_pressure;BME280_temperature;BME280_humidity;BME280_pressure;Samples;Min_cycle;Max_cycle;Signal;HPM_P1;HPM_P2
2023/11/10 07:25:43;;;;;;;1.77;0.90;;;;;;;5.22;100.00;95331.38;2106624;27;20557;-68
2023/11/10 07:30:23;;;;;;;4.18;1.60;;;;;;;5.60;100.00;95337.50;2099988;27;20549;-67
2023/11/10 07:38:58;;;;;;;2.40;1.17;;;;;;;5.47;100.00;95329.44;2091386;27;20566;-69
2023/11/10 07:40:00;;;;;;;1.95;0.82;;;;;;;5.67;100.00;95336.31;2087226;28;20197;-69
2023/11/10 07:41:03;;;;;;;1.75;1.10;;;;;;;5.96;100.00;95342.72;2084754;28;20204;-69
2023/11/10 07:42:05;;;;;;;2.15;1.23;;;;;;;6.15;100.00;95340.13;2083029;28;20193;-69
2023/11/10 07:43:06;;;;;;;3.10;1.10;;;;;;;6.27;100.00;95335.25;2073342;28;20226;-68
2023/11/10 07:44:09;;;;;;;2.20;1.15;;;;;;;6.78;100.00;95332.75;2077519;28;20224;-69
2023/11/10 07:45:14;;;;;;;2.22;1.27;;;;;;;7.60;100.00;95337.16;2078837;28;20220;-68
2023/11/10 07:46:16;;;;;;;1.10;0.70;;;;;;;8.66;93.95;95335.66;2076690;28;20288;-68
2023/11/10 07:47:18;;;;;;;4.72;1.10;;;;;;;8.74;91.36;95327.38;2076617;28;20822;-68
2023/11/10 07:48:19;;;;;;;1.63;0.80;;;;;;;8.46;91.07;95328.97;2088833;28;20203;-68
2023/11/10 07:49:21;;;;;;;6.15;0.80;;;;;;;7.95;92.61;95336.19;2090807;28;20207;-68
2023/11/10 07:50:24;;;;;;;2.47;0.80;;;;;;;7.70;94.00;95341.88;2089029;28;20198;-68
2023/11/10 07:51:26;;;;;;;2.10;0.68;;;;;;;7.88;93.23;95338.25;2088729;28;20261;-68
2023/11/10 07:52:28;;;;;;;3.72;0.70;;;;;;;8.57;90.60;95337.94;2087670;28;20196;-68
2023/11/10 07:53:30;;;;;;;1.45;0.70;;;;;;;8.94;88.88;95328.81;2088268;28;20215;-68
2023/11/10 07:54:33;;;;;;;2.35;0.70;;;;;;;9.08;87.63;95337.59;2102764;28;20277;-69
2023/11/10 07:55:35;;;;;;;2.40;1.00;;;;;;;9.00;87.10;95335.44;2099728;28;20198;-68
2023/11/10 07:56:36;;;;;;;1.35;0.70;;;;;;;8.22;89.97;95333.78;2086189;28;20761;-68
2023/11/10 07:57:38;;;;;;;6.05;0.85;;;;;;;7.92;91.37;95344.13;2086698;28;20281;-68
2023/11/10 07:58:39;;;;;;;1.42;0.70;;;;;;;7.61;92.29;95343.19;2086243;28;20213;-68
2023/11/10 08:02:40;;;;;;;2.47;1.27;;;;;;;6.74;96.90;95336.41;2083408;28;20568;-68
2023/11/10 08:06:04;;;;;;;1.23;0.60;;;;;;;6.33;98.53;95343.56;2083694;28;20552;-68
2023/11/10 08:09:15;;;;;;;3.72;0.70;;;;;;;6.15;99.39;95336.69;2091354;27;20551;-68
2023/11/10 08:10:17;;;;;;;1.42;0.70;;;;;;;6.10;99.39;95343.84;2090310;28;20219;-68
2023/11/10 08:11:19;;;;;;;2.42;0.80;;;;;;;6.11;99.46;95345.53;2090791;28;20223;-68
2023/11/10 08:12:21;;;;;;;3.03;0.80;;;;;;;6.33;98.37;95340.16;2084915;28;20679;-68
2023/11/10 08:13:22;;;;;;;1.95;0.80;;;;;;;6.47;98.38;95342.91;2073561;28;20201;-68
2023/11/10 08:14:24;;;;;;;1.20;0.70;;;;;;;6.64;96.78;95344.69;2074099;28;20203;-68
2023/11/10 08:15:25;;;;;;;1.90;0.82;;;;;;;6.61;96.20;95346.56;2073422;28;20193;-68
2023/11/10 08:16:27;;;;;;;1.40;0.60;;;;;;;7.23;93.34;95344.28;2073398;28;20201;-68
2023/11/10 08:17:29;;;;;;;2.20;0.63;;;;;;;8.25;89.82;95332.78;2068704;28;20198;-68
2023/11/10 08:18:31;;;;;;;1.90;0.80;;;;;;;9.14;85.83;95343.28;2091140;28;20571;-68
2023/11/10 08:19:33;;;;;;;1.83;1.00;;;;;;;9.70;82.21;95326.88;2091513;28;20241;-68
2023/11/10 08:20:35;;;;;;;2.55;0.80;;;;;;;10.29;79.42;95338.84;2096499;28;20206;-69
2023/11/10 08:21:36;;;;;;;4.32;0.90;;;;;;;10.77;77.67;95331.38;2096127;28;20196;-68
2023/11/10 08:22:41;;;;;;;4.70;0.80;;;;;;;10.73;77.44;95340.38;2079669;28;20221;-68
2023/11/10 08:23:43;;;;;;;2.13;0.90;;;;;;;11.02;76.23;95339.34;2081620;28;20449;-69
2023/11/10 08:24:44;;;;;;;1.42;0.70;;;;;;;10.59;76.70;95343.88;2082197;28;20840;-68
2023/11/10 08:25:49;;;;;;;3.75;0.85;;;;;;;9.46;80.98;95332.66;2078476;28;20189;-69
2023/11/10 08:26:53;;;;;;;1.77;0.82;;;;;;;10.42;78.62;95334.53;2078934;28;20201;-69
2023/11/10 08:27:54;;;;;;;5.78;0.85;;;;;;;10.43;77.90;95341.41;2074659;28;20291;-69
2023/11/10 08:28:56;;;;;;;2.05;0.80;;;;;;;10.52;76.48;95342.59;2078296;28;20767;-69
2023/11/10 08:29:58;;;;;;;1.40;0.70;;;;;;;10.18;77.09;95321.25;2078393;28;20210;-69
2023/11/10 08:30:59;;;;;;;7.05;1.10;;;;;;;9.38;78.71;95332.28;2082256;28;20345;-69
2023/11/10 08:32:01;;;;;;;3.75;0.80;;;;;;;8.73;81.73;95332.69;2081743;28;20209;-68
2023/11/10 08:33:02;;;;;;;1.73;0.73;;;;;;;8.10;82.73;95321.47;2078002;28;20248;-68
2023/11/10 08:34:04;;;;;;;1.70;0.80;;;;;;;7.83;84.85;95345.47;2078861;28;20203;-68
2023/11/10 08:35:07;;;;;;;3.72;0.73;;;;;;;7.54;86.51;95339.25;2080757;28;20290;-68
2023/11/10 08:36:10;;;;;;;2.35;0.70;;;;;;;7.28;87.31;95342.28;2081098;28;20201;-68
2023/11/10 08:37:12;;;;;;;1.70;0.80;;;;;;;7.28;87.77;95347.50;2078246;28;20205;-68
2023/11/10 08:38:14;;;;;;;2.90;0.75;;;;;;;7.67;87.91;95338.50;2080067;28;20221;-68
2023/11/10 08:39:20;;;;;;;2.63;1.00;;;;;;;7.66;87.75;95341.19;2081433;28;20197;-68
2023/11/10 08:40:22;;;;;;;1.52;0.68;;;;;;;7.57;87.25;95350.31;2078700;28;20189;-68
2023/11/10 08:41:23;;;;;;;1.77;0.70;;;;;;;7.21;88.65;95338.31;2081308;28;20211;-68
2023/11/10 08:42:25;;;;;;;2.00;1.42;;;;;;;7.05;90.28;95353.03;2082528;28;20284;-68
2023/11/10 08:43:27;;;;;;;2.17;0.80;;;;;;;6.96;91.46;95351.75;2080300;28;20572;-68
2023/11/10 08:44:29;;;;;;;1.35;0.80;;;;;;;6.83;92.54;95344.59;2082388;28;20676;-68
2023/11/10 08:45:30;;;;;;;2.97;0.77;;;;;;;7.03;93.63;95353.09;2081899;28;20204;-68
2023/11/10 08:46:32;;;;;;;2.33;1.02;;;;;;;7.30;92.34;95355.19;2081649;28;20203;-69
2023/11/10 08:47:34;;;;;;;1.90;0.90;;;;;;;7.68;90.93;95350.56;2079870;28;20205;-69
2023/11/10 08:48:35;;;;;;;1.38;0.60;;;;;;;7.48;90.55;95348.22;2081152;28;20201;-68
2023/11/10 08:49:36;;;;;;;2.03;0.80;;;;;;;7.39;92.03;95349.53;2082139;28;20281;-69
2023/11/10 08:50:39;;;;;;;1.42;0.68;;;;;;;7.37;90.56;95350.53;2078182;28;20207;-69
2023/11/10 08:51:41;;;;;;;1.30;0.60;;;;;;;7.16;89.95;95353.31;2082162;28;20201;-68
2023/11/10 08:52:46;;;;;;;1.45;0.73;;;;;;;7.08;89.24;95351.13;2078612;28;20223;-68
2023/11/10 08:53:48;;;;;;;2.85;0.80;;;;;;;8.16;87.80;95347.13;2080898;28;20251;-68
2023/11/10 08:54:49;;;;;;;2.40;0.60;;;;;;;9.20;81.00;95354.25;2081396;28;20193;-68
2023/11/10 08:55:50;;;;;;;3.47;0.70;;;;;;;9.91;78.26;95347.31;2078178;28;20208;-68
2023/11/10 08:56:52;;;;;;;1.80;0.70;;;;;;;9.61;77.69;95345.69;2080777;28;20208;-68
2023/11/10 08:57:53;;;;;;;1.33;0.70;;;;;;;9.34;79.10;95343.00;2082590;28;20221;-69
2023/11/10 08:58:56;;;;;;;3.38;0.60;;;;;;;8.89;81.28;95341.28;2081089;28;20232;-67
2023/11/10 08:59:57;;;;;;;1.30;0.60;;;;;;;8.40;82.41;95339.69;2096861;28;20207;-68
2023/11/10 09:00:59;;;;;;;2.97;0.68;;;;;;;7.99;83.71;95348.06;2097075;28;20327;-68
2023/11/10 09:02:00;;;;;;;1.80;0.75;;;;;;;7.98;84.88;95354.19;2080613;28;20805;-68
2023/11/10 09:03:02;;;;;;;1.10;0.60;;;;;;;8.38;83.87;95348.53;2081166;28;20247;-68
2023/11/10 09:04:04;;;;;;;1.30;0.60;;;;;;;9.16;80.66;95351.00;2082431;28;20228;-68
2023/11/10 09:05:19;;;;;;;1.67;0.70;;;;;;;8.71;82.86;95358.81;2082259;28;20193;-68
2023/11/10 09:06:21;;;;;;;1.20;0.60;;;;;;;8.29;83.78;95357.69;2082310;28;20228;-68
2023/11/10 09:07:23;;;;;;;2.15;1.00;;;;;;;9.83;80.79;95353.03;2077519;28;20194;-68
2023/11/10 09:08:24;;;;;;;1.67;0.70;;;;;;;11.00;75.75;95352.50;2080233;28;20708;-68
2023/11/10 09:09:26;;;;;;;1.65;0.70;;;;;;;-145.49;100.00;55703.94;2081622;28;20216;-68
2023/11/10 09:10:28;;;;;;;2.85;0.70;;;;;;;-145.49;100.00;55703.94;2084679;28;20632;-68
2023/11/10 09:11:29;;;;;;;2.17;0.90;;;;;;;10.19;75.71;95350.81;2083596;28;20257;-68
2023/11/10 09:12:32;;;;;;;1.77;0.60;;;;;;;9.55;76.84;95344.31;2071924;28;20204;-69
2023/11/10 09:13:34;;;;;;;1.52;0.80;;;;;;;9.10;78.88;95354.81;2082018;28;20209;-68
2023/11/10 09:14:35;;;;;;;1.92;0.68;;;;;;;8.76;79.63;95351.56;2080821;28;20194;-68
2023/11/10 09:15:37;;;;;;;1.75;0.60;;;;;;;8.56;80.72;95350.13;2079945;28;20227;-68
2023/11/10 09:16:38;;;;;;;1.10;0.60;;;;;;;8.20;82.21;95350.41;2081868;28;20229;-68
2023/11/10 09:17:41;;;;;;;1.45;0.68;;;;;;;8.11;82.31;95349.16;2081214;28;20217;-68
2023/11/10 09:18:43;;;;;;;1.70;0.80;;;;;;;8.05;84.10;95358.13;2080835;28;20671;-68
2023/11/10 09:19:44;;;;;;;1.63;0.60;;;;;;;7.78;83.83;95358.72;2079956;28;20199;-69
2023/11/10 09:20:46;;;;;;;3.90;0.80;;;;;;;7.69;84.50;95356.59;2074689;28;20201;-68
2023/11/10 09:21:48;;;;;;;1.85;1.00;;;;;;;7.64;86.12;95345.63;2076677;28;20784;-68
2023/11/10 09:22:50;;;;;;;1.13;0.60;;;;;;;7.65;86.39;95360.28;2075863;28;20225;-68
2023/11/10 09:23:51;;;;;;;3.50;0.70;;;;;;;7.45;85.65;95353.56;2076055;28;20533;-68
2023/11/10 09:24:53;;;;;;;2.45;0.60;;;;;;;7.39;85.12;95359.06;2076288;28;20207;-68
2023/11/10 09:25:56;;;;;;;1.10;0.60;;;;;;;7.25;84.28;95362.38;2076308;28;20212;-68
2023/11/10 09:27:00;;;;;;;1.35;0.60;;;;;;;7.17;85.96;95362.78;2075971;28;20668;-68
2023/11/10 09:28:01;;;;;;;3.13;0.80;;;;;;;7.16;87.07;95366.28;2076194;28;20220;-69
2023/11/10 09:29:06;;;;;;;1.88;0.70;;;;;;;7.15;87.36;95362.03;2075384;28;20193;-68
2023/11/10 09:30:08;;;;;;;3.33;0.75;;;;;;;7.12;86.67;95373.44;2077243;28;20197;-69
2023/11/10 09:31:10;;;;;;;1.92;0.70;;;;;;;7.12;86.96;95372.56;2075743;28;20276;-68
2023/11/10 09:32:11;;;;;;;1.48;0.60;;;;;;;7.02;86.51;95369.59;2075495;28;20255;-68
2023/11/10 09:33:13;;;;;;;2.70;0.77;;;;;;;6.95;85.47;95369.06;2075394;28;20903;-68
2023/11/10 09:34:14;;;;;;;1.33;0.65;;;;;;;6.92;85.96;95379.63;2075164;28;20264;-68
2023/11/10 09:35:16;;;;;;;3.13;0.70;;;;;;;6.96;86.27;95380.31;2075970;28;20193;-68
2023/11/10 09:36:18;;;;;;;1.40;0.60;;;;;;;6.99;86.42;95386.16;2075136;28;20283;-68
2023/11/10 09:37:20;;;;;;;2.17;0.70;;;;;;;7.06;85.56;95384.13;2074157;28;20202;-68
2023/11/10 09:38:22;;;;;;;2.10;0.70;;;;;;;7.27;83.51;95379.56;2075649;28;20592;-68
2023/11/10 09:39:24;;;;;;;3.55;0.90;;;;;;;7.31;84.68;95385.44;2072148;28;20231;-68
2023/11/10 09:40:28;;;;;;;2.90;0.70;;;;;;;7.28;84.52;95389.03;2073661;28;20199;-68
2023/11/10 09:41:38;;;;;;;2.40;0.63;;;;;;;7.29;84.97;95390.72;2072199;28;20251;-68
2023/11/10 09:42:40;;;;;;;2.10;0.60;;;;;;;7.58;84.22;95385.78;2067986;28;20834;-68
2023/11/10 09:43:45;;;;;;;3.15;0.68;;;;;;;7.63;83.69;95381.16;2075317;28;20205;-68
2023/11/10 09:44:55;;;;;;;1.30;0.60;;;;;;;7.46;82.86;95389.84;2074626;28;20200;-68
2023/11/10 09:46:02;;;;;;;3.20;0.65;;;;;;;7.32;82.83;95379.34;2075803;28;20284;-67
2023/11/10 09:47:05;;;;;;;1.60;0.60;;;;;;;7.42;82.59;95393.50;2075869;28;20200;-68
2023/11/10 09:48:08;;;;;;;2.45;0.60;;;;;;;7.62;83.50;95381.25;2074467;28;20312;-68
2023/11/10 09:49:13;;;;;;;1.50;0.60;;;;;;;8.07;81.47;95378.84;2076664;28;20208;-69
2023/11/10 09:50:18;;;;;;;2.95;0.70;;;;;;;8.14;81.92;95385.41;2074790;28;20197;-68
2023/11/10 09:51:22;;;;;;;2.15;0.85;;;;;;;8.23;82.92;95369.28;2074421;28;20204;-68
2023/11/10 09:52:34;;;;;;;3.25;0.70;;;;;;;7.99;82.21;95382.69;2074398;28;20194;-68
2023/11/10 09:53:38;;;;;;;1.50;0.70;;;;;;;7.90;83.35;95375.41;2092189;28;20252;-68
2023/11/10 09:54:42;;;;;;;1.80;0.70;;;;;;;7.92;83.98;95377.91;2092100;28;20243;-68
2023/11/10 09:55:45;;;;;;;2.35;0.70;;;;;;;7.98;83.74;95373.22;2074495;28;20250;-68
2023/11/10 09:56:48;;;;;;;1.63;0.60;;;;;;;8.04;83.89;95368.59;2075930;28;20201;-68
2023/11/10 09:57:51;;;;;;;1.30;0.70;;;;;;;9.27;82.17;95374.63;2075793;28;20247;-68
2023/11/10 09:58:52;;;;;;;5.70;0.88;;;;;;;10.91;75.34;95380.09;2075432;28;20201;-68
2023/11/10 09:59:55;;;;;;;1.95;0.80;;;;;;;11.35;71.03;95366.75;2074049;28;20197;-68
2023/11/10 10:00:58;;;;;;;2.78;0.80;;;;;;;12.33;69.64;95363.47;2074706;28;20295;-68
2023/11/10 10:02:00;;;;;;;3.13;0.80;;;;;;;-145.49;100.00;55703.94;2075707;28;20202;-68
2023/11/10 10:03:03;;;;;;;1.95;0.80;;;;;;;-145.49;100.00;55703.94;2072578;28;20274;-68
2023/11/10 10:04:06;;;;;;;2.13;0.70;;;;;;;-145.49;100.00;55703.94;2075692;28;20196;-68
2023/11/10 10:05:09;;;;;;;3.75;0.90;;;;;;;-145.49;100.00;55703.94;2075538;28;20247;-68
2023/11/10 10:06:12;;;;;;;3.90;0.80;;;;;;;12.12;65.09;95356.22;2075502;28;20190;-68
2023/11/10 10:07:17;;;;;;;1.40;0.70;;;;;;;11.28;68.40;95369.78;2075250;28;20190;-68
2023/11/10 10:08:21;;;;;;;6.97;0.98;;;;;;;10.54;71.48;95368.59;2073571;28;20221;-68
2023/11/10 10:09:22;;;;;;;3.97;0.90;;;;;;;9.83;72.82;95365.22;2075942;28;20739;-68
2023/11/10 10:10:27;;;;;;;1.23;0.70;;;;;;;9.23;74.39;95361.88;2076773;28;20237;-68
2023/11/10 10:11:28;;;;;;;1.40;0.70;;;;;;;9.32;76.79;95364.78;2074928;28;20197;-68
2023/11/10 10:12:31;;;;;;;1.50;0.70;;;;;;;9.36;76.38;95364.56;2070578;28;20209;-68
2023/11/10 10:13:33;;;;;;;3.08;0.93;;;;;;;9.24;77.25;95358.34;2075518;28;20527;-69
2023/11/10 10:14:35;;;;;;;3.25;0.75;;;;;;;9.55;76.19;95354.72;2074307;28;20201;-68
2023/11/10 10:15:38;;;;;;;1.48;0.60;;;;;;;9.31;76.73;95357.06;2073304;28;20201;-68
2023/11/10 10:16:53;;;;;;;4.05;0.90;;;;;;;8.74;76.45;95331.78;2076392;28;20702;-68
2023/11/10 10:18:03;;;;;;;2.00;0.70;;;;;;;8.47;77.65;95348.88;2074480;28;20311;-68
2023/11/10 10:19:06;;;;;;;2.50;0.90;;;;;;;8.43;78.79;95349.94;2074028;28;21112;-68
2023/11/10 10:20:10;;;;;;;1.40;0.70;;;;;;;8.50;79.08;95353.06;2071465;28;20296;-68
2023/11/10 10:21:11;;;;;;;7.75;0.90;;;;;;;8.73;78.05;95353.50;2072909;28;20193;-68
2023/11/10 10:22:22;;;;;;;1.83;0.70;;;;;;;9.34;74.68;95350.81;2075627;28;20201;-68
2023/11/10 10:23:24;;;;;;;3.10;0.60;;;;;;;9.33;74.46;95347.34;2074367;28;20225;-68
2023/11/10 10:24:26;;;;;;;1.58;0.73;;;;;;;10.03;74.74;95350.94;2071977;28;20206;-69
2023/11/10 10:25:28;;;;;;;1.40;0.70;;;;;;;9.89;72.38;95343.97;2075123;28;20924;-68
2023/11/10 10:26:29;;;;;;;3.08;0.73;;;;;;;9.69;74.15;95343.44;2074239;28;20198;-68
2023/11/10 10:27:31;;;;;;;1.50;0.70;;;;;;;11.08;70.41;95336.31;2075527;28;20223;-68
2023/11/10 10:28:33;;;;;;;2.90;0.80;;;;;;;11.87;67.91;95346.59;2076556;28;20197;-68
2023/11/10 10:29:36;;;;;;;1.60;0.70;;;;;;;11.17;67.74;95343.53;2074616;28;20687;-68
2023/11/10 10:30:38;;;;;;;3.65;0.82;;;;;;;10.86;69.14;95339.56;2071904;28;20197;-68
2023/11/10 10:31:40;;;;;;;2.33;0.70;;;;;;;11.47;67.36;95331.94;2073369;28;20233;-68
2023/11/10 10:32:42;;;;;;;3.42;1.00;;;;;;;11.16;67.85;95328.81;2068787;28;20210;-68
2023/11/10 10:33:50;;;;;;;1.40;0.60;;;;;;;11.05;67.72;95331.31;2073496;28;20193;-68
2023/11/10 10:34:51;;;;;;;1.92;0.70;;;;;;;11.69;66.85;95328.66;2076284;28;20193;-70
2023/11/10 10:35:53;;;;;;;2.05;0.70;;;;;;;11.98;65.19;95324.97;2075151;28;20901;-70
2023/11/10 10:36:54;;;;;;;1.65;0.60;;;;;;;-145.49;100.00;55703.94;2073576;28;20297;-70
2023/11/10 10:38:04;;;;;;;1.10;0.60;;;;;;;-145.49;100.00;55703.94;2068074;28;20234;-70
2023/11/10 10:39:10;;;;;;;3.22;0.80;;;;;;;-145.49;100.00;55703.94;2074112;28;20560;-70
2023/11/10 10:40:14;;;;;;;4.70;1.10;;;;;;;11.98;65.19;95324.97;2075033;28;20189;-70
2023/11/10 10:41:19;;;;;;;3.50;0.73;;;;;;;10.75;65.29;95316.75;2074922;28;20204;-69
2023/11/10 10:42:21;;;;;;;2.90;0.70;;;;;;;9.85;67.06;95325.06;2075163;28;20199;-70
2023/11/10 10:43:23;;;;;;;1.92;0.80;;;;;;;9.56;69.44;95322.53;2073116;28;20283;-70
2023/11/10 10:44:26;;;;;;;2.25;0.70;;;;;;;9.48;69.42;95327.34;2073967;28;20240;-70
2023/11/10 10:45:27;;;;;;;1.20;0.50;;;;;;;10.85;66.20;95330.03;2075740;28;20197;-69
2023/11/10 10:46:36;;;;;;;3.75;0.80;;;;;;;10.78;66.71;95329.63;2075579;28;20201;-69
2023/11/10 10:47:39;;;;;;;5.88;0.70;;;;;;;11.30;65.45;95332.25;2070448;28;20205;-70
2023/11/10 10:48:42;;;;;;;2.75;0.70;;;;;;;11.37;65.34;95336.94;2072069;28;20251;-70
2023/11/10 10:49:45;;;;;;;1.00;0.55;;;;;;;11.15;66.77;95327.16;2073217;28;20202;-68
2023/11/10 10:50:49;;;;;;;2.97;0.60;;;;;;;10.16;69.87;95327.50;2075067;28;20205;-69
2023/11/10 10:51:51;;;;;;;4.18;0.68;;;;;;;10.82;68.14;95331.09;2071454;28;20271;-70
2023/11/10 10:52:56;;;;;;;1.50;0.57;;;;;;;10.61;65.93;95336.78;2072242;28;20429;-69
2023/11/10 10:54:03;;;;;;;1.10;0.50;;;;;;;11.34;65.31;95331.94;2074718;28;20227;-70
2023/11/10 10:55:06;;;;;;;1.20;0.57;;;;;;;11.34;65.31;95331.94;2075625;28;20228;-70
2023/11/10 10:56:08;;;;;;;2.90;0.80;;;;;;;12.71;63.50;95328.44;2073227;28;20213;-70
2023/11/10 10:57:13;;;;;;;4.63;0.77;;;;;;;12.15;63.51;95332.47;2074377;28;20233;-70
2023/11/10 10:58:14;;;;;;;2.10;0.80;;;;;;;11.97;63.05;95328.53;2074308;28;20218;-70
2023/11/10 10:59:16;;;;;;;5.93;1.20;;;;;;;11.44;64.99;95330.38;2077638;28;20194;-70
2023/11/10 11:00:19;;;;;;;6.78;1.25;;;;;;;11.34;63.81;95325.88;2075768;28;20268;-70
2023/11/10 11:01:21;;;;;;;3.05;0.80;;;;;;;10.20;68.17;95339.44;2076023;28;20248;-70
2023/11/10 11:02:24;;;;;;;2.60;1.00;;;;;;;9.74;70.16;95324.94;2077249;28;20228;-67
2023/11/10 11:04:01;;;;;;;4.55;0.93;;;;;;;9.92;69.23;95335.97;2074997;28;20422;-67
2023/11/10 11:05:28;;;;;;;3.10;0.85;;;;;;;9.55;68.32;95339.09;2048585;28;20336;-67
2023/11/10 11:06:47;;;;;;;3.83;0.73;;;;;;;9.42;68.62;95330.34;2070970;28;20343;-68
2023/11/10 11:08:10;;;;;;;3.25;1.20;;;;;;;9.08;69.76;95332.41;2071055;28;20336;-68
2023/11/10 11:09:36;;;;;;;2.05;0.80;;;;;;;8.86;70.99;95332.81;2075239;28;20245;-67
2023/11/10 11:10:56;;;;;;;4.68;0.90;;;;;;;8.91;71.54;95326.41;2073737;28;20229;-68
2023/11/10 11:12:39;;;;;;;5.07;0.73;;;;;;;8.86;71.82;95327.59;2075559;28;20197;-68
2023/11/10 11:13:49;;;;;;;1.45;0.70;;;;;;;8.64;73.18;95332.28;2075807;28;20323;-67
2023/11/10 11:15:04;;;;;;;2.72;1.08;;;;;;;8.40;71.87;95331.91;2075077;28;20211;-68
2023/11/10 11:16:31;;;;;;;2.28;0.68;;;;;;;8.08;71.35;95326.75;2074476;28;20197;-68
2023/11/10 11:17:54;;;;;;;2.53;0.60;;;;;;;8.00;71.72;95328.97;2070218;28;20240;-67
2023/11/10 11:19:25;;;;;;;2.55;0.70;;;;;;;7.99;72.90;95322.91;2073182;28;20317;-67
2023/11/10 11:20:29;;;;;;;2.90;0.80;;;;;;;7.99;72.87;95330.69;2074248;28;20573;-67
2023/11/10 11:21:31;;;;;;;4.40;0.98;;;;;;;7.87;72.09;95327.94;2076267;28;20208;-67
2023/11/10 11:22:35;;;;;;;2.75;0.70;;;;;;;7.81;72.63;95318.75;2073510;28;20241;-68
2023/11/10 11:23:38;;;;;;;1.52;0.60;;;;;;;7.75;73.22;95311.28;2073844;28;20228;-67
2023/11/10 11:24:44;;;;;;;2.85;0.70;;;;;;;7.72;74.35;95309.69;2071439;28;20274;-68
2023/11/10 11:25:56;;;;;;;5.47;0.82;;;;;;;7.78;75.22;95306.75;2072260;28;20228;-68
2023/11/10 11:26:59;;;;;;;2.08;0.80;;;;;;;7.84;74.82;95316.78;2072764;28;20205;-67
2023/11/10 11:28:00;;;;;;;2.28;0.70;;;;;;;7.78;75.69;95309.34;2071102;28;20274;-68
2023/11/10 11:29:06;;;;;;;3.55;0.80;;;;;;;7.76;76.17;95311.19;2075216;28;20331;-67
2023/11/10 11:30:10;;;;;;;2.05;0.60;;;;;;;7.82;76.00;95317.78;2074065;28;20292;-68
2023/11/10 11:31:12;;;;;;;1.20;0.60;;;;;;;7.77;75.56;95312.00;2074148;28;20247;-67
2023/11/10 11:32:20;;;;;;;2.25;0.80;;;;;;;7.67;76.07;95312.53;2074860;28;20193;-67
2023/11/10 11:33:22;;;;;;;2.72;0.70;;;;;;;7.58;76.28;95313.03;2074239;28;20232;-67
2023/11/10 11:34:23;;;;;;;2.25;0.80;;;;;;;7.59;75.48;95306.91;2076572;28;20224;-68
2023/11/10 11:35:25;;;;;;;2.13;0.70;;;;;;;7.59;76.73;95321.66;2071317;28;20202;-67
2023/11/10 11:36:27;;;;;;;1.40;0.80;;;;;;;7.60;77.63;95318.13;2071959;28;20725;-67
2023/11/10 11:37:32;;;;;;;2.70;0.90;;;;;;;7.63;77.81;95315.34;2074476;28;20201;-67
2023/11/10 11:38:35;;;;;;;4.53;1.05;;;;;;;7.52;75.95;95308.97;2076040;28;20227;-68
2023/11/10 11:39:37;;;;;;;3.40;0.60;;;;;;;7.46;76.39;95314.50;2073485;28;20197;-67
2023/11/10 11:40:42;;;;;;;2.45;0.80;;;;;;;7.43;76.50;95311.25;2071220;28;20682;-68
2023/11/10 11:41:54;;;;;;;2.22;0.70;;;;;;;7.31;77.12;95304.94;2072048;28;20228;-68
2023/11/10 11:42:55;;;;;;;2.22;0.98;;;;;;;7.26;77.16;95307.78;2074278;28;20222;-67
2023/11/10 11:43:57;;;;;;;2.78;0.70;;;;;;;7.29;78.11;95314.59;2075481;28;20295;-68
2023/11/10 11:45:00;;;;;;;2.35;0.90;;;;;;;7.31;79.30;95316.19;2073725;28;20193;-67
2023/11/10 11:46:05;;;;;;;2.08;0.60;;;;;;;7.20;79.11;95318.50;2073783;28;20267;-67
2023/11/10 11:47:09;;;;;;;2.05;0.70;;;;;;;6.89;80.69;95325.25;2074910;28;20272;-67
2023/11/10 11:48:12;;;;;;;6.90;0.60;;;;;;;6.76;81.60;95324.22;2073960;28;20232;-67
2023/11/10 11:49:15;;;;;;;4.85;1.20;;;;;;;6.69;82.44;95327.13;2073855;28;20192;-67
2023/11/10 11:50:17;;;;;;;1.65;0.70;;;;;;;7.63;81.05;95318.81;2074871;28;20669;-67
2023/11/10 11:51:18;;;;;;;3.05;0.80;;;;;;;7.43;81.63;95322.47;2074820;28;20243;-67
2023/11/10 11:52:19;;;;;;;6.63;1.25;;;;;;;7.43;81.49;95319.88;2074262;28;20265;-67
2023/11/10 11:53:25;;;;;;;2.40;0.85;;;;;;;7.54;81.83;95329.69;2074764;28;20286;-67
2023/11/10 11:54:26;;;;;;;2.30;0.85;;;;;;;7.91;80.90;95319.91;2071366;28;20236;-68
2023/11/10 11:55:28;;;;;;;4.05;0.70;;;;;;;8.56;77.64;95321.50;2074150;28;20226;-67
2023/11/10 11:56:30;;;;;;;1.50;0.70;;;;;;;9.05;76.59;95316.94;2073343;28;20201;-68
2023/11/10 11:57:34;;;;;;;4.25;1.00;;;;;;;9.23;75.67;95318.44;2072724;28;20258;-67
2023/11/10 11:58:37;;;;;;;2.40;0.70;;;;;;;9.42;74.99;95317.31;2073508;28;20207;-67
2023/11/10 11:59:41;;;;;;;4.57;0.80;;;;;;;10.32;74.26;95307.31;2074230;28;20673;-67
2023/11/10 12:00:43;;;;;;;3.03;0.60;;;;;;;10.35;73.80;95309.75;2076816;28;20201;-68
2023/11/10 12:01:44;;;;;;;5.20;1.00;;;;;;;9.73;74.89;95312.81;2077002;28;20550;-68
2023/11/10 12:02:46;;;;;;;2.58;0.80;;;;;;;9.23;74.96;95312.38;2074078;28;20232;-67
2023/11/10 12:03:48;;;;;;;4.13;0.77;;;;;;;8.91;74.88;95310.81;2073540;28;20627;-68
2023/11/10 12:04:50;;;;;;;4.35;1.17;;;;;;;8.98;75.06;95308.66;2073200;28;20236;-68
2023/11/10 12:05:51;;;;;;;1.83;0.70;;;;;;;9.72;73.50;95311.97;2075035;28;20604;-68
2023/11/10 12:06:52;;;;;;;2.25;1.20;;;;;;;10.56;71.19;95307.53;2075188;28;20668;-68
2023/11/10 12:07:54;;;;;;;2.55;0.90;;;;;;;10.98;68.85;95296.09;2070522;28;20275;-67
2023/11/10 12:08:56;;;;;;;3.97;1.10;;;;;;;11.06;67.95;95289.41;2071466;28;20240;-68
2023/11/10 12:09:58;;;;;;;3.13;0.90;;;;;;;10.91;67.81;95286.06;2074092;28;20615;-67
2023/11/10 12:11:00;;;;;;;2.63;0.98;;;;;;;11.06;67.88;95292.03;2074486;28;20943;-68
2023/11/10 12:12:02;;;;;;;1.38;0.70;;;;;;;10.87;66.91;95283.75;2074167;28;20254;-67
2023/11/10 12:13:06;;;;;;;9.45;1.10;;;;;;;11.30;67.63;95280.00;2073625;28;20213;-68
2023/11/10 12:14:09;;;;;;;2.20;0.70;;;;;;;11.39;65.51;95282.00;2071301;28;20267;-68
2023/11/10 12:15:12;;;;;;;2.17;0.80;;;;;;;11.37;66.24;95276.84;2072755;28;20566;-68
2023/11/10 12:16:15;;;;;;;13.48;1.10;;;;;;;11.38;66.23;95275.91;2073721;28;20194;-68
2023/11/10 12:17:27;;;;;;;2.55;0.95;;;;;;;11.54;65.51;95285.28;2074395;28;20658;-67
2023/11/10 12:18:29;;;;;;;3.67;0.80;;;;;;;11.62;64.35;95280.38;2074704;28;20229;-71
2023/11/10 12:19:31;;;;;;;2.08;0.85;;;;;;;11.39;65.48;95279.38;2078268;28;20299;-68
2023/11/10 12:20:32;;;;;;;2.65;0.70;;;;;;;10.92;66.11;95284.31;2078547;28;20205;-68
2023/11/10 12:21:34;;;;;;;2.50;0.88;;;;;;;10.16;66.09;95286.63;2074726;28;20546;-67
2023/11/10 12:22:36;;;;;;;2.67;0.90;;;;;;;9.45;67.55;95283.25;2073037;28;20205;-67
2023/11/10 12:23:37;;;;;;;1.48;0.70;;;;;;;9.07;68.72;95289.88;2075937;28;20197;-67
2023/11/10 12:24:39;;;;;;;2.55;1.00;;;;;;;8.80;70.69;95282.78;2074972;28;20193;-68
2023/11/10 12:25:41;;;;;;;3.35;0.60;;;;;;;8.72;71.41;95291.97;2074048;28;20283;-68
2023/11/10 12:26:43;;;;;;;2.72;0.90;;;;;;;8.76;72.77;95290.84;2073721;28;20608;-69
2023/11/10 12:27:45;;;;;;;7.07;1.25;;;;;;;9.48;71.05;95294.34;2070449;28;20201;-67
2023/11/10 12:28:48;;;;;;;1.63;0.70;;;;;;;9.49;70.04;95295.16;2074232;28;20830;-68
2023/11/10 12:29:50;;;;;;;1.17;0.60;;;;;;;10.24;69.10;95284.34;2075885;28;20677;-67
2023/11/10 12:30:51;;;;;;;6.38;1.30;;;;;;;10.62;68.25;95285.41;2072919;28;20209;-68
2023/11/10 12:31:53;;;;;;;2.67;0.75;;;;;;;10.82;67.61;95271.03;2073360;28;20232;-68
2023/11/10 12:32:55;;;;;;;4.40;0.80;;;;;;;11.04;67.79;95266.94;2062990;28;20304;-67
2023/11/10 12:33:59;;;;;;;1.77;0.70;;;;;;;11.08;66.38;95266.66;2075555;28;20229;-68
2023/11/10 12:35:03;;;;;;;4.55;0.70;;;;;;;11.09;66.47;95259.63;2071303;28;20198;-67
2023/11/10 12:36:08;;;;;;;2.15;0.80;;;;;;;10.92;65.51;95271.25;2075118;28;20653;-68
2023/11/10 12:37:13;;;;;;;3.78;1.08;;;;;;;10.81;66.12;95271.13;2075926;28;20677;-68
2023/11/10 12:38:15;;;;;;;3.25;0.90;;;;;;;10.92;65.82;95271.25;2072970;28;20221;-67
2023/11/10 12:39:20;;;;;;;3.22;1.00;;;;;;;10.97;65.87;95278.75;2074898;28;20291;-67
2023/11/10 12:40:24;;;;;;;5.07;1.10;;;;;;;10.92;65.42;95282.50;2072757;28;20198;-68
2023/11/10 12:41:25;;;;;;;2.22;0.80;;;;;;;10.96;65.56;95280.53;2071328;28;20650;-68
2023/11/10 12:42:27;;;;;;;2.50;1.10;;;;;;;11.43;66.15;95281.66;2071310;28;20198;-68
2023/11/10 12:43:30;;;;;;;2.65;0.80;;;;;;;11.22;64.54;95272.69;2073821;28;20235;-68
2023/11/10 12:44:32;;;;;;;1.63;0.70;;;;;;;10.95;63.80;95277.06;2075426;28;20351;-68
2023/11/10 12:45:33;;;;;;;7.43;0.80;;;;;;;11.26;63.97;95274.13;2072202;28;20198;-68
2023/11/10 12:46:36;;;;;;;1.95;0.70;;;;;;;11.25;64.27;95277.72;2089374;28;20731;-68